Time;durP1;ratioP1;P1;durP2;ratioP2;P2;SDS_P1;SDS_P2;PMS_P1;PMS_P2;Temp;Humidity;BMP_temperature;BMP_pressure;BME280_temperature;BME280_humidity;BME280_pressure;Samples;Min_cycle;Max_cycle;Signal;HPM_P1;HPM_P2
2023/01/03 00:01:18;;;;;;;9.55;6.60;;;;;;;6.19;100.00;102559.41;5113598;28;20501;-37
2023/01/03 00:03:44;;;;;;;10.33;7.33;;;;;;;6.18;100.00;102568.47;5113633;28;20094;-37
2023/01/03 00:06:20;;;;;;;11.85;7.53;;;;;;;6.15;100.00;102562.59;5113824;28;20028;-37
2023/01/03 00:08:46;;;;;;;11.80;7.57;;;;;;;6.05;100.00;102545.72;5113905;28;20142;-37
2023/01/03 00:12:22;;;;;;;8.57;7.15;;;;;;;6.07;100.00;102560.69;5113890;28;20045;-37
2023/01/03 00:14:06;;;;;;;12.07;7.68;;;;;;;6.03;100.00;102551.28;5113300;28;20067;-37
2023/01/03 00:16:31;;;;;;;10.82;6.93;;;;;;;6.04;100.00;102557.47;5113848;28;20073;-36
2023/01/03 00:18:57;;;;;;;10.73;7.77;;;;;;;5.94;100.00;102561.13;5114129;28;20027;-36
2023/01/03 00:21:22;;;;;;;10.30;7.40;;;;;;;5.94;100.00;102553.06;5114530;28;20031;-36
2023/01/03 00:23:47;;;;;;;11.67;7.87;;;;;;;5.94;100.00;102555.75;5114499;28;20057;-36
2023/01/03 00:26:17;;;;;;;9.90;8.10;;;;;;;5.85;100.00;102550.44;5114068;28;20069;-37
2023/01/03 00:28:42;;;;;;;10.93;7.53;;;;;;;5.83;100.00;102558.66;5113510;28;20069;-37
2023/01/03 00:31:10;;;;;;;11.13;7.90;;;;;;;5.83;100.00;102557.84;5113411;28;20027;-37
2023/01/03 00:33:37;;;;;;;10.15;7.45;;;;;;;5.78;100.00;102558.31;5115500;28;20480;-37
2023/01/03 00:36:04;;;;;;;13.30;7.40;;;;;;;5.77;100.00;102559.31;5117317;28;20510;-37
2023/01/03 00:38:30;;;;;;;10.80;6.40;;;;;;;5.75;100.00;102563.97;5117260;28;20076;-37
2023/01/03 00:41:06;;;;;;;13.93;7.75;;;;;;;5.71;100.00;102559.94;5117834;28;20028;-37
2023/01/03 00:43:33;;;;;;;11.00;7.13;;;;;;;5.72;100.00;102561.63;5117770;28;20045;-37
2023/01/03 00:45:58;;;;;;;11.18;6.65;;;;;;;5.57;100.00;102547.09;5117891;28;20114;-37
2023/01/03 00:48:24;;;;;;;9.43;6.78;;;;;;;5.64;100.00;102559.72;5117402;28;20457;-37
2023/01/03 00:50:50;;;;;;;10.20;7.57;;;;;;;5.52;100.00;102552.09;5117366;28;20031;-37
2023/01/03 00:53:15;;;;;;;13.10;7.60;;;;;;;5.42;100.00;102544.97;5117115;28;20043;-37
2023/01/03 00:55:40;;;;;;;9.93;6.90;;;;;;;5.52;100.00;102577.06;5118038;28;20027;-37
2023/01/03 00:58:06;;;;;;;12.53;7.43;;;;;;;5.41;100.00;102572.78;5117513;28;20043;-37
2023/01/03 01:00:31;;;;;;;10.67;7.13;;;;;;;5.37;100.00;102558.00;5117099;28;20019;-37
2023/01/03 01:02:56;;;;;;;11.23;7.60;;;;;;;5.38;100.00;102575.78;5117995;28;20028;-37
2023/01/03 01:05:22;;;;;;;12.30;7.43;;;;;;;5.42;100.00;102587.91;5116803;28;20059;-37
2023/01/03 01:07:48;;;;;;;11.27;7.20;;;;;;;5.32;100.00;102568.34;5116956;28;20032;-37
2023/01/03 01:10:13;;;;;;;12.00;7.03;;;;;;;5.16;100.00;102544.88;5117306;28;20030;-37
2023/01/03 01:12:38;;;;;;;10.80;6.43;;;;;;;5.34;100.00;102585.13;5116910;28;20019;-37
2023/01/03 01:15:05;;;;;;;11.13;7.00;;;;;;;5.33;100.00;102588.81;5116983;28;20540;-37
2023/01/03 01:17:30;;;;;;;12.90;6.90;;;;;;;5.27;100.00;102583.19;5116461;28;20081;-37
2023/01/03 01:19:56;;;;;;;9.05;6.68;;;;;;;5.23;100.00;102588.06;5117617;28;20367;-37
2023/01/03 01:22:21;;;;;;;8.17;6.13;;;;;;;5.25;100.00;102595.94;5116869;28;20484;-37
2023/01/03 01:24:47;;;;;;;8.97;6.47;;;;;;;5.21;100.00;102606.13;5116695;28;20055;-37
2023/01/03 01:27:13;;;;;;;8.63;6.00;;;;;;;5.23;100.00;102604.16;5117068;28;20264;-38
2023/01/03 01:29:38;;;;;;;8.27;6.40;;;;;;;5.16;100.00;102598.53;5117211;28;20024;-37
2023/01/03 01:32:05;;;;;;;12.43;6.75;;;;;;;5.15;100.00;102612.94;5116587;28;20031;-37
2023/01/03 01:34:30;;;;;;;;;;;;;;;5.19;100.00;102610.81;5116607;28;20038;-37
2023/01/03 01:36:56;;;;;;;8.68;6.57;;;;;;;5.01;100.00;102607.25;5116394;28;20010;-37
2023/01/03 01:39:24;;;;;;;10.55;6.55;;;;;;;4.93;100.00;102607.16;5116488;28;20028;-37
2023/01/03 01:44:47;;;;;;;11.23;6.88;;;;;;;4.87;100.00;102619.34;5115833;28;20042;-37
2023/01/03 01:47:47;;;;;;;12.35;6.85;;;;;;;4.83;100.00;102620.63;5116653;28;20028;-38
2023/01/03 01:50:34;;;;;;;10.48;7.07;;;;;;;4.67;100.00;102617.75;5116241;28;20066;-37
2023/01/03 01:53:10;;;;;;;8.43;6.32;;;;;;;4.76;100.00;102638.31;5116329;28;20055;-37
2023/01/03 01:56:08;;;;;;;10.45;6.60;;;;;;;4.74;100.00;102633.09;5116175;28;20024;-37
2023/01/03 01:58:35;;;;;;;;;;;;;;;4.75;100.00;102641.97;5014023;28;20123;-37
2023/01/03 02:01:04;;;;;;;9.07;6.13;;;;;;;4.62;100.00;102647.69;5013376;28;19913;-37
2023/01/03 02:03:30;;;;;;;9.23;6.45;;;;;;;4.57;100.00;102640.06;5013407;28;20038;-37
2023/01/03 02:05:57;;;;;;;8.47;6.53;;;;;;;4.64;100.00;102648.38;5013339;28;20498;-37
2023/01/03 02:08:23;;;;;;;10.82;6.90;;;;;;;4.40;100.00;102622.13;5013633;28;20034;-37
2023/01/03 02:11:07;;;;;;;12.13;7.07;;;;;;;4.49;100.00;102636.44;5013100;28;20069;-37
2023/01/03 02:13:40;;;;;;;10.70;6.65;;;;;;;4.39;100.00;102634.66;5013372;28;20034;-37
2023/01/03 02:16:29;;;;;;;10.50;6.40;;;;;;;4.41;100.00;102639.88;5013254;28;20542;-37
2023/01/03 02:19:27;;;;;;;10.77;6.85;;;;;;;4.45;100.00;102635.06;5013051;28;20087;-37
2023/01/03 02:22:48;;;;;;;12.13;6.75;;;;;;;4.46;100.00;102639.44;5013327;28;20173;-37
2023/01/03 02:25:28;;;;;;;10.50;6.50;;;;;;;4.35;100.00;102641.31;4915792;29;20470;-37
2023/01/03 02:28:09;;;;;;;10.88;6.43;;;;;;;4.37;100.00;102643.81;4916689;29;20152;-37
2023/01/03 02:30:47;;;;;;;8.82;6.13;;;;;;;4.42;100.00;102643.41;4916927;29;20040;-37
2023/01/03 02:33:34;;;;;;;9.43;6.18;;;;;;;4.30;100.00;102638.22;4917134;29;20389;-37
2023/01/03 02:36:11;;;;;;;9.63;6.87;;;;;;;4.23;100.00;102639.78;4990139;28;20050;-37
2023/01/03 02:38:49;;;;;;;11.05;7.05;;;;;;;4.17;100.00;102636.84;4993592;28;20038;-37
2023/01/03 02:41:17;;;;;;;8.75;5.88;;;;;;;4.24;100.00;102638.78;4993218;28;20038;-37
2023/01/03 02:43:51;;;;;;;9.10;6.82;;;;;;;4.09;100.00;102630.38;4993314;28;20034;-37
2023/01/03 02:46:26;;;;;;;9.27;6.93;;;;;;;4.02;100.00;102623.91;4976749;28;20030;-37
2023/01/03 02:48:54;;;;;;;10.65;7.13;;;;;;;4.03;100.00;102638.97;4992781;28;20547;-37
2023/01/03 02:51:27;;;;;;;11.52;7.35;;;;;;;3.99;100.00;102634.91;4992718;28;20097;-37
2023/01/03 02:53:55;;;;;;;11.95;7.05;;;;;;;3.99;100.00;102640.25;4992740;28;20054;-37
2023/01/03 02:56:26;;;;;;;10.40;7.47;;;;;;;3.98;100.00;102635.06;4991846;28;20050;-37
2023/01/03 02:58:57;;;;;;;10.18;6.90;;;;;;;4.02;100.00;102644.50;4993211;28;20034;-37
2023/01/03 03:01:24;;;;;;;15.05;6.70;;;;;;;3.90;100.00;102621.53;5101517;28;20032;-37
2023/01/03 03:03:49;;;;;;;9.65;7.10;;;;;;;3.94;100.00;102637.16;5115277;28;20026;-37
2023/01/03 03:06:31;;;;;;;9.50;6.93;;;;;;;3.90;100.00;102624.22;5115287;28;20102;-37
2023/01/03 03:08:57;;;;;;;13.65;8.00;;;;;;;3.92;100.00;102630.28;5115404;28;20035;-37
2023/01/03 03:14:24;;;;;;;11.40;6.07;;;;;;;3.88;100.00;102633.25;5115186;28;20395;-36
2023/01/03 03:16:52;;;;;;;12.40;7.57;;;;;;;3.73;100.00;102623.13;5114560;28;20028;-36
2023/01/03 03:25:48;;;;;;;9.48;7.10;;;;;;;3.80;100.00;102645.63;5114492;28;20030;-37
2023/01/03 03:28:34;;;;;;;11.65;7.60;;;;;;;3.75;100.00;102642.53;5114344;28;20073;-36
2023/01/03 03:31:11;;;;;;;9.17;7.00;;;;;;;3.77;100.00;102637.91;5114915;28;20062;-36
2023/01/03 03:33:59;;;;;;;12.32;6.55;;;;;;;3.83;100.00;102632.81;5114812;28;20072;-37
2023/01/03 03:36:44;;;;;;;8.95;6.63;;;;;;;3.82;100.00;102635.66;5114510;28;20112;-37
2023/01/03 03:44:59;;;;;;;9.13;6.88;;;;;;;3.64;100.00;102600.75;5113961;28;20114;-37
2023/01/03 03:44:59;;;;;;;10.68;7.07;;;;;;;3.71;100.00;102631.31;5114355;28;20031;-37
2023/01/03 03:47:36;;;;;;;12.55;7.57;;;;;;;3.70;100.00;102629.59;5114062;28;20423;-36
2023/01/03 03:50:24;;;;;;;12.95;7.50;;;;;;;3.68;100.00;102636.94;5114251;28;20028;-37
2023/01/03 03:52:54;;;;;;;8.70;6.95;;;;;;;3.61;100.00;102625.09;5113845;28;20131;-37
2023/01/03 03:55:32;;;;;;;9.98;6.50;;;;;;;3.65;100.00;102631.84;5114804;28;20039;-36
2023/01/03 03:58:02;;;;;;;12.27;6.68;;;;;;;3.64;100.00;102640.88;5113708;28;20031;-36
2023/01/03 04:00:33;;;;;;;10.73;7.40;;;;;;;3.55;100.00;102634.53;5114295;28;20088;-36
2023/01/03 04:03:01;;;;;;;11.48;6.97;;;;;;;3.57;100.00;102645.09;5114750;28;20417;-36
2023/01/03 04:05:30;;;;;;;8.40;6.90;;;;;;;3.47;100.00;102633.56;5113930;28;20032;-36
2023/01/03 04:07:56;;;;;;;9.77;7.53;;;;;;;3.54;100.00;102634.69;5114369;28;20023;-37
2023/01/03 04:10:22;;;;;;;9.80;7.27;;;;;;;3.51;100.00;102632.28;5118156;28;20038;-37
2023/01/03 04:12:49;;;;;;;10.15;6.53;;;;;;;3.60;100.00;102639.47;5118070;28;20036;-37
2023/01/03 04:15:15;;;;;;;10.23;6.75;;;;;;;3.58;100.00;102644.13;5118660;28;20039;-37
2023/01/03 04:17:41;;;;;;;14.40;7.35;;;;;;;3.53;100.00;102641.88;5118020;28;20034;-37
2023/01/03 04:20:07;;;;;;;9.95;6.43;;;;;;;3.57;100.00;102639.75;5117727;28;20036;-36
2023/01/03 04:22:32;;;;;;;11.23;7.30;;;;;;;3.52;100.00;102623.28;5117844;28;20509;-36
2023/01/03 04:24:58;;;;;;;12.13;6.40;;;;;;;3.54;100.00;102640.88;5117824;28;20479;-37
2023/01/03 04:27:23;;;;;;;8.43;6.27;;;;;;;3.52;100.00;102634.00;5117427;28;20066;-37
2023/01/03 04:29:48;;;;;;;10.80;6.20;;;;;;;3.59;100.00;102640.44;5118127;28;20102;-37
2023/01/03 04:32:14;;;;;;;13.10;7.50;;;;;;;3.56;100.00;102643.41;5117804;28;20109;-37
2023/01/03 04:34:39;;;;;;;9.97;6.57;;;;;;;3.44;100.00;102626.66;5117681;28;20499;-37
2023/01/03 04:37:04;;;;;;;9.93;6.40;;;;;;;3.45;100.00;102620.31;5117714;28;20034;-37
2023/01/03 04:39:30;;;;;;;8.30;5.80;;;;;;;3.47;100.00;102630.91;5118135;28;20035;-37
2023/01/03 04:41:55;;;;;;;7.87;6.00;;;;;;;3.43;100.00;102621.47;5117553;28;20081;-37
2023/01/03 04:44:20;;;;;;;8.57;5.97;;;;;;;3.50;100.00;102635.94;5117808;28;20118;-37
2023/01/03 04:46:46;;;;;;;10.63;5.83;;;;;;;3.61;100.00;102642.00;5117118;28;20059;-37
2023/01/03 04:49:11;;;;;;;10.10;6.63;;;;;;;3.63;100.00;102646.38;5117397;28;20110;-37
2023/01/03 04:51:37;;;;;;;8.47;5.77;;;;;;;3.65;100.00;102650.56;5117659;28;20055;-37
2023/01/03 04:54:04;;;;;;;16.17;7.90;;;;;;;3.70;100.00;102656.34;5118215;28;20050;-37
2023/01/03 04:56:31;;;;;;;8.63;6.07;;;;;;;3.62;100.00;102637.50;5117284;28;20080;-37
2023/01/03 04:58:57;;;;;;;8.82;5.78;;;;;;;3.75;100.00;102640.72;5117188;28;20028;-37
2023/01/03 05:01:24;;;;;;;10.00;6.03;;;;;;;3.76;100.00;102641.59;5117038;28;20464;-37
2023/01/03 05:03:49;;;;;;;8.60;5.32;;;;;;;3.77;100.00;102640.59;5099017;28;20027;-37
2023/01/03 05:06:15;;;;;;;10.25;5.78;;;;;;;3.85;100.00;102646.91;5117016;28;20023;-37
2023/01/03 05:08:45;;;;;;;9.02;6.50;;;;;;;3.85;100.00;102638.03;5117065;28;20023;-37
2023/01/03 05:11:10;;;;;;;7.88;6.05;;;;;;;3.87;100.00;102636.91;5117445;28;20042;-37
2023/01/03 05:13:36;;;;;;;11.23;6.47;;;;;;;3.89;100.00;102642.09;5117201;28;20027;-36
2023/01/03 05:16:07;;;;;;;10.07;5.47;;;;;;;3.95;100.00;102629.97;5116587;28;20027;-37
2023/01/03 05:18:33;;;;;;;11.25;6.65;;;;;;;3.94;100.00;102634.50;5117632;28;20364;-37
2023/01/03 05:26:45;;;;;;;11.27;6.05;;;;;;;3.97;100.00;102622.66;5117020;28;20092;-37
2023/01/03 05:29:12;;;;;;;;;;;;;;;4.11;100.00;102641.78;5117316;28;20023;-37
2023/01/03 05:31:37;;;;;;;8.70;6.28;;;;;;;4.03;100.00;102635.47;5116560;28;20048;-37
2023/01/03 05:34:03;;;;;;;10.67;5.93;;;;;;;4.01;100.00;102632.09;5116851;28;20048;-37
2023/01/03 05:36:28;;;;;;;10.80;6.63;;;;;;;3.95;100.00;102629.97;5116819;28;20437;-37
2023/01/03 05:38:53;;;;;;;10.50;7.63;;;;;;;3.98;100.00;102621.66;5117318;28;20270;-37
2023/01/03 05:41:58;;;;;;;10.33;7.13;;;;;;;3.97;100.00;102634.22;5116400;28;20077;-36
2023/01/03 05:44:05;;;;;;;9.95;7.72;;;;;;;3.95;100.00;102627.31;5115941;28;20552;-36
2023/01/03 05:46:31;;;;;;;12.35;7.35;;;;;;;3.93;100.00;102626.63;5116272;28;20028;-37
2023/01/03 05:48:56;;;;;;;11.52;7.93;;;;;;;3.83;100.00;102614.09;5116292;28;20024;-37
2023/01/03 05:51:21;;;;;;;11.30;7.73;;;;;;;3.73;100.00;102605.22;5116221;28;20024;-36
2023/01/03 05:53:47;;;;;;;12.53;7.90;;;;;;;3.76;100.00;102606.81;5116547;28;20146;-36
2023/01/03 05:56:12;;;;;;;10.07;7.70;;;;;;;3.73;100.00;102602.56;5115796;28;20030;-37
2023/01/03 05:58:37;;;;;;;9.77;7.10;;;;;;;3.85;100.00;102624.63;5115819;28;20031;-37
2023/01/03 06:01:10;;;;;;;13.10;7.60;;;;;;;3.79;100.00;102620.72;5116009;28;20035;-37
2023/01/03 06:03:35;;;;;;;12.57;8.13;;;;;;;3.81;100.00;102629.47;5116312;28;20030;-36
2023/01/03 06:06:03;;;;;;;13.83;8.53;;;;;;;3.80;100.00;102625.06;5115918;28;20429;-43
2023/01/03 06:08:28;;;;;;;11.57;7.70;;;;;;;3.80;100.00;102625.06;5116567;28;20034;-37
2023/01/03 06:10:53;;;;;;;9.67;7.43;;;;;;;3.79;100.00;102612.69;5116266;28;20118;-37
2023/01/03 06:13:20;;;;;;;11.17;7.53;;;;;;;3.76;100.00;102604.97;5115780;28;20129;-36
2023/01/03 06:17:53;;;;;;;12.60;8.13;;;;;;;3.80;100.00;102609.00;5115679;28;20028;-36
2023/01/03 06:18:33;;;;;;;14.52;8.18;;;;;;;3.78;100.00;102616.34;5115351;28;20048;-37
2023/01/03 06:20:58;;;;;;;12.15;7.63;;;;;;;3.73;100.00;102601.72;5116170;28;20073;-37
2023/01/03 06:23:24;;;;;;;11.93;7.63;;;;;;;3.78;100.00;102607.47;5115653;28;20058;-37
2023/01/03 06:25:49;;;;;;;11.37;8.60;;;;;;;3.77;100.00;102603.97;5115550;28;20034;-36
2023/01/03 06:28:14;;;;;;;9.70;7.87;;;;;;;3.78;100.00;102605.66;5115532;28;20375;-37
2023/01/03 06:30:41;;;;;;;12.23;7.93;;;;;;;3.79;100.00;102603.81;5114848;28;20080;-36
2023/01/03 06:33:06;;;;;;;10.00;7.93;;;;;;;3.77;100.00;102598.63;5115437;28;20073;-37
2023/01/03 06:35:32;;;;;;;12.83;7.83;;;;;;;3.80;100.00;102609.00;5097792;28;20043;-37
2023/01/03 06:37:57;;;;;;;9.47;7.90;;;;;;;3.81;100.00;102604.53;5115091;28;20031;-37
2023/01/03 06:40:22;;;;;;;13.07;8.17;;;;;;;3.77;100.00;102592.41;5116051;28;20028;-36
2023/01/03 06:42:48;;;;;;;10.63;7.70;;;;;;;3.74;100.00;102580.16;5115206;28;20023;-37
2023/01/03 06:53:36;;;;;;;11.18;7.68;;;;;;;3.80;100.00;102581.41;5115379;28;20158;-37
2023/01/03 06:56:03;;;;;;;10.77;7.85;;;;;;;3.86;100.00;102588.88;5115263;28;20034;-37
2023/01/03 06:58:28;;;;;;;10.07;7.68;;;;;;;3.81;100.00;102589.31;5114560;28;20502;-36
2023/01/03 07:00:56;;;;;;;10.52;7.88;;;;;;;3.80;100.00;102590.28;5114853;28;20027;-37
2023/01/03 07:03:21;;;;;;;7.90;7.10;;;;;;;3.79;100.00;102580.56;5115338;28;20041;-37
2023/01/03 07:05:47;;;;;;;10.43;7.05;;;;;;;3.80;100.00;102590.28;5115592;28;20027;-37
2023/01/03 07:08:12;;;;;;;11.55;8.15;;;;;;;3.81;100.00;102588.47;5114726;28;20019;-37
2023/01/03 07:10:38;;;;;;;10.50;7.50;;;;;;;3.81;100.00;102585.81;5114666;28;20055;-37
2023/01/03 07:15:47;;;;;;;8.68;6.55;;;;;;;3.79;100.00;102591.28;5114297;28;20092;-37
2023/01/03 07:18:13;;;;;;;9.00;6.78;;;;;;;3.80;100.00;102606.34;5115420;28;20361;-37
2023/01/03 07:20:42;;;;;;;10.75;6.97;;;;;;;3.82;100.00;102606.22;5114174;28;20540;-37
2023/01/03 07:23:08;;;;;;;7.97;6.32;;;;;;;3.80;100.00;102611.69;5115334;28;20027;-37
2023/01/03 07:25:33;;;;;;;11.70;7.13;;;;;;;3.78;100.00;102637.75;5114473;28;20033;-37
2023/01/03 07:27:59;;;;;;;10.53;6.57;;;;;;;3.85;100.00;102633.50;5114881;28;20081;-37
2023/01/03 07:30:24;;;;;;;9.00;7.27;;;;;;;3.86;100.00;102618.31;5114084;28;20269;-37
2023/01/03 07:32:49;;;;;;;10.33;7.43;;;;;;;3.94;100.00;102625.63;5114950;28;20028;-37
2023/01/03 07:35:15;;;;;;;12.10;9.30;;;;;;;3.96;100.00;102611.13;5113989;28;20027;-37
2023/01/03 07:37:40;;;;;;;10.13;7.80;;;;;;;4.02;100.00;102612.38;5113950;28;20016;-37
2023/01/03 07:40:06;;;;;;;11.60;7.40;;;;;;;4.04;100.00;102616.56;5114840;28;20023;-37
2023/01/03 07:45:15;;;;;;;10.38;7.25;;;;;;;4.13;100.00;102620.22;5114115;28;20074;-37
2023/01/03 07:47:44;;;;;;;9.50;6.90;;;;;;;4.19;100.00;102624.16;5114040;28;20063;-37
2023/01/03 07:50:09;;;;;;;8.75;6.72;;;;;;;4.17;100.00;102615.44;5114198;28;20055;-37
2023/01/03 07:52:35;;;;;;;14.13;8.73;;;;;;;4.25;100.00;102619.06;5114064;28;20077;-37
2023/01/03 07:55:00;;;;;;;12.43;8.33;;;;;;;4.30;100.00;102626.66;5115001;28;20051;-37
2023/01/03 07:57:26;;;;;;;12.07;9.03;;;;;;;4.34;100.00;102634.28;5114588;28;20026;-37
2023/01/03 07:59:51;;;;;;;12.85;9.02;;;;;;;4.39;100.00;102634.66;5114045;28;20024;-37
2023/01/03 08:02:19;;;;;;;9.27;7.27;;;;;;;4.50;100.00;102630.13;5113753;28;20502;-37
2023/01/03 08:04:44;;;;;;;12.10;8.68;;;;;;;4.40;100.00;102616.75;5114830;28;20032;-37
2023/01/03 08:07:10;;;;;;;11.63;8.95;;;;;;;4.41;100.00;102625.63;5114518;28;20062;-37
2023/01/03 08:15:03;;;;;;;11.15;7.68;;;;;;;4.58;100.00;102651.63;5114473;28;20173;-37
2023/01/03 08:17:28;;;;;;;11.63;8.63;;;;;;;4.62;100.00;102651.19;5113652;28;20098;-37
2023/01/03 08:19:54;;;;;;;11.43;7.77;;;;;;;4.69;100.00;102656.81;5113930;28;20034;-37
2023/01/03 08:22:19;;;;;;;10.83;9.23;;;;;;;4.67;100.00;102645.41;5113848;28;20107;-37
2023/01/03 08:24:44;;;;;;;12.43;8.67;;;;;;;4.77;100.00;102667.63;5113956;28;20059;-37
2023/01/03 08:27:10;;;;;;;10.27;8.70;;;;;;;4.80;100.00;102667.34;5113751;28;20051;-37
2023/01/03 08:29:35;;;;;;;11.00;8.60;;;;;;;4.84;100.00;102663.38;5114007;28;20054;-37
2023/01/03 08:32:01;;;;;;;12.90;10.00;;;;;;;4.88;100.00;102659.41;5113697;28;20111;-37
2023/01/03 08:34:32;;;;;;;11.68;9.32;;;;;;;4.85;100.00;102653.50;5114085;28;20443;-37
2023/01/03 08:37:06;;;;;;;11.65;9.75;;;;;;;4.95;100.00;102658.81;5114145;28;20536;-37
2023/01/03 08:39:37;;;;;;;16.08;11.07;;;;;;;4.91;100.00;102656.41;5114126;28;20036;-37
2023/01/03 08:42:07;;;;;;;14.00;11.15;;;;;;;4.94;100.00;102646.41;5113400;28;20031;-37
2023/01/03 08:44:33;;;;;;;15.70;11.30;;;;;;;5.05;100.00;102664.97;5113920;28;20448;-37
2023/01/03 08:47:01;;;;;;;18.08;13.30;;;;;;;5.07;100.00;102665.63;5113326;28;20034;-37
2023/01/03 08:49:28;;;;;;;17.05;15.27;;;;;;;5.12;100.00;102676.75;5095550;28;20082;-37
2023/01/03 08:51:53;;;;;;;14.38;12.88;;;;;;;5.15;100.00;102676.47;5113530;28;20135;-37
2023/01/03 08:54:18;;;;;;;14.73;11.80;;;;;;;5.11;100.00;102661.66;5115387;28;20502;-37
2023/01/03 08:56:44;;;;;;;12.70;10.77;;;;;;;5.11;100.00;102662.50;5117359;28;20031;-37
2023/01/03 08:59:09;;;;;;;16.00;10.93;;;;;;;5.22;100.00;102676.69;5118197;28;20024;-37
2023/01/03 09:01:34;;;;;;;14.70;10.43;;;;;;;5.24;100.00;102680.94;5117497;28;20032;-37
2023/01/03 09:04:00;;;;;;;15.90;11.83;;;;;;;5.25;100.00;102682.59;5118036;28;20028;-37
2023/01/03 09:06:25;;;;;;;17.40;11.20;;;;;;;5.30;100.00;102674.94;5098889;28;20116;-37
2023/01/03 09:08:50;;;;;;;12.83;10.83;;;;;;;5.33;100.00;102669.28;5098996;28;20036;-37
2023/01/03 09:11:16;;;;;;;18.90;16.37;;;;;;;5.24;100.00;102651.44;5117029;28;20030;-37
2023/01/03 09:13:41;;;;;;;17.37;12.37;;;;;;;5.38;100.00;102671.53;5117368;28;20077;-37
2023/01/03 09:16:09;;;;;;;14.45;11.27;;;;;;;5.33;100.00;102669.28;5117259;28;20028;-37
2023/01/03 09:18:36;;;;;;;11.90;10.13;;;;;;;5.45;100.00;102682.47;5116925;28;20114;-37
2023/01/03 09:21:02;;;;;;;14.57;11.05;;;;;;;5.47;100.00;102683.19;5116573;28;20391;-37
2023/01/03 09:23:28;;;;;;;15.68;11.57;;;;;;;5.48;100.00;102680.34;5116991;28;20028;-37
2023/01/03 09:25:54;;;;;;;19.13;11.40;;;;;;;5.52;100.00;102680.91;5116793;28;20449;-37
2023/01/03 09:28:19;;;;;;;17.70;11.93;;;;;;;5.57;100.00;102678.59;5116458;28;20028;-37
2023/01/03 09:30:44;;;;;;;15.47;11.03;;;;;;;5.61;100.00;102677.25;5116672;28;20042;-37
2023/01/03 09:33:10;;;;;;;16.17;12.57;;;;;;;5.64;100.00;102685.00;5117012;28;20076;-37
2023/01/03 09:35:38;;;;;;;16.63;12.57;;;;;;;5.58;100.00;102661.47;5116812;28;20080;-37
2023/01/03 09:38:04;;;;;;;15.63;11.85;;;;;;;5.61;100.00;102661.16;5116602;28;20110;-37
2023/01/03 09:40:30;;;;;;;17.55;11.75;;;;;;;5.71;100.00;102678.06;5116261;28;20096;-37
2023/01/03 09:43:13;;;;;;;19.55;12.00;;;;;;;5.74;100.00;102679.56;5117056;28;20023;-37
2023/01/03 09:45:55;;;;;;;19.63;11.52;;;;;;;5.77;100.00;102677.44;5116386;28;20067;-37
2023/01/03 09:48:34;;;;;;;14.40;11.45;;;;;;;5.75;100.00;102663.31;5116162;28;20110;-37
2023/01/03 09:51:00;;;;;;;17.88;11.82;;;;;;;5.75;100.00;102663.31;5116356;28;20392;-37
2023/01/03 10:05:39;;;;;;;16.77;10.73;;;;;;;5.96;100.00;102675.59;5115381;28;20128;-37
2023/01/03 10:08:25;;;;;;;13.75;10.13;;;;;;;6.01;100.00;102681.34;5115921;28;20464;-36
2023/01/03 10:11:32;;;;;;;16.38;10.77;;;;;;;6.02;100.00;102669.59;5115945;28;20069;-37
2023/01/03 10:14:10;;;;;;;15.40;9.43;;;;;;;6.05;100.00;102661.22;5116356;28;20397;-37
2023/01/03 10:16:57;;;;;;;15.25;9.95;;;;;;;6.09;100.00;102659.91;5115526;28;20036;-37
2023/01/03 10:20:03;;;;;;;16.88;10.50;;;;;;;6.13;100.00;102663.97;5116027;28;20031;-37
2023/01/03 10:22:31;;;;;;;14.75;10.13;;;;;;;6.21;100.00;102673.94;5115995;28;20049;-42
2023/01/03 10:25:05;;;;;;;14.65;9.45;;;;;;;6.27;100.00;102673.31;5115295;28;20369;-37
2023/01/03 10:27:35;;;;;;;14.48;10.02;;;;;;;6.27;100.00;102674.13;5115134;28;20028;-37
2023/01/03 10:30:04;;;;;;;15.15;9.68;;;;;;;6.31;100.00;102672.81;5115191;28;20028;-37
2023/01/03 10:32:45;;;;;;;13.18;9.15;;;;;;;6.36;100.00;102667.81;5115038;28;20050;-37
2023/01/03 10:35:16;;;;;;;12.80;8.75;;;;;;;6.41;100.00;102657.44;5115682;28;20023;-37
2023/01/03 10:37:42;;;;;;;12.73;8.10;;;;;;;6.47;100.00;102660.47;5115853;28;20028;-37
2023/01/03 10:40:08;;;;;;;10.48;7.70;;;;;;;6.51;100.00;102654.63;5115589;28;20042;-37
2023/01/03 10:42:34;;;;;;;;;;;;;;;6.57;100.00;102648.59;5115522;28;20031;-37
2023/01/03 10:45:09;;;;;;;11.43;7.75;;;;;;;6.55;100.00;102645.25;5115197;28;19908;-37
2023/01/03 10:47:34;;;;;;;12.23;8.15;;;;;;;6.58;100.00;102649.44;5115292;28;20042;-37
2023/01/03 10:50:00;;;;;;;15.13;7.27;;;;;;;6.48;100.00;102630.75;5115480;28;20391;-38
2023/01/03 10:52:32;;;;;;;11.55;7.05;;;;;;;6.62;100.00;102657.03;5114721;28;20094;-36
2023/01/03 10:55:01;;;;;;;11.15;7.50;;;;;;;6.63;100.00;102658.72;5114938;28;20059;-37
2023/01/03 10:57:57;;;;;;;11.27;7.15;;;;;;;6.65;100.00;102661.25;5115132;28;20077;-37
2023/01/03 11:00:31;;;;;;;13.20;7.45;;;;;;;6.64;100.00;102654.19;5113436;28;20038;-37
2023/01/03 11:03:09;;;;;;;9.43;6.97;;;;;;;6.65;100.00;102662.09;5115695;28;20406;-37
2023/01/03 11:05:36;;;;;;;9.32;6.93;;;;;;;6.65;100.00;102659.41;5115420;28;20028;-37
2023/01/03 11:08:03;;;;;;;;;;;;;;;6.70;100.00;102658.94;5114777;28;20016;-36
2023/01/03 11:10:49;;;;;;;9.75;6.63;;;;;;;6.63;100.00;102652.50;5115221;28;20314;-36
2023/01/03 11:13:31;;;;;;;9.57;6.45;;;;;;;6.68;100.00;102661.75;5115238;28;20024;-36
2023/01/03 11:15:59;;;;;;;12.38;7.05;;;;;;;6.67;100.00;102659.25;5115442;28;20334;-36
2023/01/03 11:18:26;;;;;;;11.32;6.85;;;;;;;6.69;100.00;102660.78;5113636;28;20037;-36
2023/01/03 11:21:13;;;;;;;8.63;5.95;;;;;;;6.73;100.00;102653.22;5114455;28;20023;-36
2023/01/03 11:23:44;;;;;;;10.30;6.85;;;;;;;6.76;100.00;102657.44;5114770;28;20472;-36
2023/01/03 11:26:33;;;;;;;8.20;6.88;;;;;;;6.79;100.00;102654.44;5114832;28;20027;-36
2023/01/03 11:29:24;;;;;;;13.88;6.68;;;;;;;6.80;100.00;102653.44;5100681;28;20039;-36
2023/01/03 11:31:57;;;;;;;10.77;6.85;;;;;;;6.80;100.00;102651.56;5109209;28;20502;-36
2023/01/03 11:34:31;;;;;;;12.00;6.95;;;;;;;6.82;100.00;102651.41;5114417;28;20037;-36
2023/01/03 11:36:59;;;;;;;10.52;6.75;;;;;;;6.82;100.00;102652.25;5114036;28;20076;-36
2023/01/03 11:39:45;;;;;;;9.88;6.85;;;;;;;6.84;100.00;102644.88;5114574;28;20459;-36
2023/01/03 11:42:17;;;;;;;11.70;7.53;;;;;;;6.79;100.00;102630.25;5114348;28;20055;-37
2023/01/03 11:45:18;;;;;;;12.48;7.25;;;;;;;6.86;100.00;102640.16;5114232;28;20036;-37
2023/01/03 11:48:01;;;;;;;12.10;6.70;;;;;;;6.85;100.00;102643.88;5114447;28;20035;-37
2023/01/03 11:50:31;;;;;;;12.73;7.60;;;;;;;6.72;100.00;102614.72;5113876;28;20539;-37
2023/01/03 11:53:17;;;;;;;17.95;12.35;;;;;;;6.86;100.00;102624.03;5113713;28;20031;-37
2023/01/03 11:55:51;;;;;;;16.20;11.48;;;;;;;6.92;100.00;102635.97;5114925;28;20363;-37
2023/01/03 11:58:41;;;;;;;12.35;8.82;;;;;;;6.98;100.00;102624.59;5114271;28;20122;-37
2023/01/03 12:01:52;;;;;;;15.00;9.02;;;;;;;7.01;100.00;102616.16;5114329;28;20028;-37
2023/01/03 12:04:29;;;;;;;8.98;6.95;;;;;;;7.05;100.00;102620.22;5011251;28;20033;-37
2023/01/03 12:07:05;;;;;;;7.07;6.20;;;;;;;7.10;100.00;102619.72;5011935;28;20037;-37
2023/01/03 12:09:46;;;;;;;7.50;5.90;;;;;;;7.04;100.00;102607.78;5011390;28;20072;-36
2023/01/03 12:12:30;;;;;;;12.30;6.95;;;;;;;7.09;100.00;102621.59;5011420;28;20026;-36
2023/01/03 12:15:15;;;;;;;8.60;5.80;;;;;;;7.06;100.00;102611.13;5012080;28;20041;-37
2023/01/03 12:18:05;;;;;;;7.50;5.00;;;;;;;7.05;100.00;102609.47;5011551;28;20030;-37
2023/01/03 12:20:37;;;;;;;7.88;6.30;;;;;;;6.96;100.00;102595.16;5011977;28;20129;-37
2023/01/03 12:23:05;;;;;;;7.60;5.00;;;;;;;7.07;100.00;102598.53;5011285;28;20026;-37
2023/01/03 12:25:41;;;;;;;6.78;5.15;;;;;;;7.11;100.00;102597.19;5011308;28;20494;-37
2023/01/03 12:28:17;;;;;;;9.65;5.75;;;;;;;7.10;100.00;102588.28;5011427;28;20033;-38